Time;durP1;ratioP1;P1;durP2;ratioP2;P2;SDS_P1;SDS_P2;PMS_P1;PMS_P2;Temp;Humidity;BMP_temperature;BMP_pressure;BME280_temperature;BME280_humidity;BME280_pressure;Samples;Min_cycle;Max_cycle;Signal;HPM_P1;HPM_P2
2023/08/09 00:02:23;;;;;;;3.13;2.83;;;17.30;99.90;;;;;;5029342;28;20766;-72
2023/08/09 00:04:49;;;;;;;3.30;3.00;;;17.30;99.90;;;;;;5028282;28;20174;-72
2023/08/09 00:07:14;;;;;;;4.80;2.80;;;17.30;99.90;;;;;;5028049;28;20635;-72
2023/08/09 00:09:40;;;;;;;4.03;3.20;;;17.30;99.90;;;;;;5028990;28;20190;-72
2023/08/09 00:12:06;;;;;;;2.90;2.80;;;17.20;99.90;;;;;;5030040;28;20178;-72
2023/08/09 00:14:32;;;;;;;3.03;2.83;;;17.20;99.90;;;;;;5029170;28;20441;-72
2023/08/09 00:16:57;;;;;;;3.80;3.50;;;17.10;99.90;;;;;;5028905;28;20204;-72
2023/08/09 00:19:24;;;;;;;3.37;2.73;;;17.00;99.90;;;;;;5029294;28;20447;-72
2023/08/09 00:21:50;;;;;;;2.40;2.20;;;17.00;99.90;;;;;;5035062;28;20665;-72
2023/08/09 00:24:16;;;;;;;3.20;2.90;;;17.00;99.90;;;;;;5032269;28;20429;-72
2023/08/09 00:26:41;;;;;;;2.80;2.60;;;17.00;99.90;;;;;;5031459;28;20315;-72
2023/08/09 00:29:07;;;;;;;3.83;3.10;;;17.00;99.90;;;;;;5032666;28;20519;-72
2023/08/09 00:31:33;;;;;;;3.33;3.03;;;17.00;99.90;;;;;;5032709;28;20189;-72
2023/08/09 00:33:59;;;;;;;2.83;2.63;;;17.00;99.90;;;;;;5032512;28;20182;-72
2023/08/09 00:36:24;;;;;;;2.97;2.70;;;16.80;99.90;;;;;;5032901;28;20467;-72
2023/08/09 00:38:50;;;;;;;4.03;3.03;;;16.60;99.90;;;;;;5031700;28;20224;-72
2023/08/09 00:41:16;;;;;;;4.03;3.50;;;16.40;99.90;;;;;;5031466;28;20182;-72
2023/08/09 00:43:41;;;;;;;3.10;2.90;;;16.30;99.90;;;;;;5031857;28;20186;-72
2023/08/09 00:46:07;;;;;;;4.10;3.10;;;16.30;99.90;;;;;;5031571;28;20206;-72
2023/08/09 00:48:33;;;;;;;3.13;2.90;;;16.20;99.90;;;;;;5032019;28;20240;-72
2023/08/09 00:50:59;;;;;;;3.30;3.00;;;16.10;99.90;;;;;;5028431;28;20989;-72
2023/08/09 00:53:24;;;;;;;5.80;3.10;;;16.10;99.90;;;;;;5031278;28;20183;-72
2023/08/09 00:55:50;;;;;;;3.30;3.00;;;16.10;99.90;;;;;;5031299;28;20637;-72
2023/08/09 00:58:15;;;;;;;3.70;3.37;;;16.10;99.90;;;;;;5031394;28;20214;-72
2023/08/09 01:00:41;;;;;;;3.63;3.33;;;16.10;99.90;;;;;;5032917;28;20278;-72
2023/08/09 01:03:07;;;;;;;4.47;3.37;;;16.10;99.90;;;;;;5031918;28;20190;-72
2023/08/09 01:05:42;;;;;;;4.37;3.23;;;16.10;99.90;;;;;;5030248;28;20189;-72
2023/08/09 01:08:23;;;;;;;3.70;3.40;;;16.10;99.90;;;;;;5030339;28;20205;-72
2023/08/09 01:11:08;;;;;;;3.80;3.10;;;16.20;99.90;;;;;;5031336;28;20437;-72
2023/08/09 01:13:37;;;;;;;5.20;2.87;;;16.20;99.90;;;;;;5029925;28;21009;-72
2023/08/09 01:16:05;;;;;;;3.67;3.33;;;16.20;99.90;;;;;;5031425;28;20468;-72
2023/08/09 01:18:33;;;;;;;3.33;3.03;;;16.20;99.90;;;;;;5030061;28;20449;-72
2023/08/09 01:21:00;;;;;;;3.27;3.07;;;16.20;99.90;;;;;;5032525;28;20948;-72
2023/08/09 01:23:35;;;;;;;4.67;4.30;;;16.10;99.90;;;;;;5031445;28;20441;-72
2023/08/09 01:26:00;;;;;;;5.73;3.53;;;16.10;99.90;;;;;;5031489;28;20483;-72
2023/08/09 01:28:26;;;;;;;3.93;3.40;;;16.00;99.90;;;;;;5028837;28;20972;-72
2023/08/09 01:30:51;;;;;;;3.50;3.10;;;16.00;99.90;;;;;;5031834;28;20220;-72
2023/08/09 01:33:17;;;;;;;4.00;3.60;;;16.00;99.90;;;;;;5031658;28;20185;-71
2023/08/09 01:36:11;;;;;;;3.50;3.30;;;15.90;99.90;;;;;;5034040;28;20185;-72
2023/08/09 01:38:44;;;;;;;6.30;3.30;;;16.00;99.90;;;;;;5030773;28;20202;-72
2023/08/09 01:41:10;;;;;;;4.37;4.00;;;16.00;99.90;;;;;;5030087;28;20459;-72
2023/08/09 01:43:37;;;;;;;3.87;3.30;;;16.00;99.90;;;;;;5030711;28;20435;-72
2023/08/09 01:46:02;;;;;;;3.80;3.50;;;16.00;99.90;;;;;;5032989;28;20453;-72
2023/08/09 01:48:28;;;;;;;4.20;3.07;;;16.00;99.90;;;;;;5027945;28;20876;-72
2023/08/09 01:50:54;;;;;;;3.80;3.40;;;16.00;99.90;;;;;;5031908;28;20189;-72
2023/08/09 01:53:20;;;;;;;5.60;3.43;;;16.00;99.90;;;;;;5033282;28;20178;-72
2023/08/09 01:55:45;;;;;;;3.70;3.40;;;16.10;99.90;;;;;;5032045;28;20429;-72
2023/08/09 01:58:11;;;;;;;2.83;2.60;;;16.00;99.90;;;;;;5032343;28;20213;-72
2023/08/09 02:00:36;;;;;;;3.27;2.80;;;16.00;99.90;;;;;;5029139;28;20178;-72
2023/08/09 02:03:02;;;;;;;4.47;2.80;;;16.00;99.90;;;;;;5029589;28;20174;-71
2023/08/09 02:05:28;;;;;;;3.37;3.10;;;16.00;99.90;;;;;;5032943;28;20202;-72
2023/08/09 02:07:53;;;;;;;3.00;2.80;;;15.90;99.90;;;;;;5037549;28;20285;-72
2023/08/09 02:10:19;;;;;;;5.50;5.00;;;15.90;99.90;;;;;;5030692;28;20186;-72
2023/08/09 02:12:47;;;;;;;3.47;3.17;;;15.80;99.90;;;;;;5032476;28;20675;-72
2023/08/09 02:15:15;;;;;;;2.93;2.73;;;15.80;99.90;;;;;;5030153;28;20686;-72
2023/08/09 02:17:42;;;;;;;2.97;2.50;;;15.80;99.90;;;;;;5030589;28;20452;-72
2023/08/09 02:20:09;;;;;;;4.30;3.33;;;15.70;99.90;;;;;;5029436;28;20440;-72
2023/08/09 02:22:39;;;;;;;3.90;3.60;;;15.80;99.90;;;;;;5029789;28;20461;-72
2023/08/09 02:25:07;;;;;;;2.97;2.77;;;15.90;99.90;;;;;;5029720;28;20536;-72
2023/08/09 02:27:32;;;;;;;4.33;3.23;;;15.90;99.90;;;;;;5030076;28;20480;-72
2023/08/09 02:29:58;;;;;;;3.67;3.30;;;16.00;99.90;;;;;;5029455;28;20440;-72
2023/08/09 02:32:24;;;;;;;5.20;3.10;;;16.00;99.90;;;;;;5029120;28;20709;-72
2023/08/09 02:34:49;;;;;;;3.10;2.60;;;16.10;99.90;;;;;;5029668;28;20257;-72
2023/08/09 02:37:15;;;;;;;3.50;3.30;;;16.10;99.90;;;;;;5027495;28;20561;-72
2023/08/09 02:39:40;;;;;;;3.10;2.90;;;16.10;99.90;;;;;;5028643;28;20184;-72
2023/08/09 02:42:06;;;;;;;3.47;2.87;;;16.20;99.90;;;;;;5030164;28;21116;-72
2023/08/09 02:44:32;;;;;;;2.93;2.73;;;16.20;99.90;;;;;;5029604;28;20722;-72
2023/08/09 02:46:58;;;;;;;3.90;3.07;;;16.10;99.90;;;;;;5030581;28;20222;-72
2023/08/09 02:49:24;;;;;;;3.33;3.13;;;16.10;99.90;;;;;;5027713;28;20432;-72
2023/08/09 02:51:49;;;;;;;2.57;2.40;;;16.10;99.90;;;;;;5029431;28;20443;-72
2023/08/09 02:54:15;;;;;;;4.93;3.20;;;16.10;99.90;;;;;;5029464;28;20265;-72
2023/08/09 02:56:41;;;;;;;10.60;9.50;;;16.10;99.90;;;;;;5030011;28;20573;-72
2023/08/09 02:59:06;;;;;;;4.80;4.27;;;16.10;99.90;;;;;;5033694;28;20212;-72
2023/08/09 03:01:33;;;;;;;3.03;2.83;;;16.10;99.90;;;;;;5026986;28;20516;-72
2023/08/09 03:03:59;;;;;;;5.73;3.10;;;16.20;99.90;;;;;;5027927;28;20212;-72
2023/08/09 03:06:25;;;;;;;3.10;2.80;;;16.20;99.90;;;;;;5027782;28;20454;-72
2023/08/09 03:08:52;;;;;;;3.27;3.07;;;16.20;99.90;;;;;;5038285;28;20436;-72
2023/08/09 03:11:21;;;;;;;3.27;3.00;;;16.30;99.90;;;;;;5030695;28;20562;-72
2023/08/09 03:13:47;;;;;;;4.70;3.07;;;16.20;99.90;;;;;;5023976;28;20449;-72
2023/08/09 03:16:13;;;;;;;3.33;3.13;;;16.10;99.90;;;;;;5026166;28;20536;-72
2023/08/09 03:18:39;;;;;;;3.13;2.83;;;16.10;99.90;;;;;;5027389;28;20213;-72
2023/08/09 03:21:05;;;;;;;4.10;3.30;;;16.10;99.90;;;;;;5023271;28;20170;-72
2023/08/09 03:23:31;;;;;;;3.07;2.83;;;16.10;99.90;;;;;;5030198;28;20968;-72
2023/08/09 03:25:56;;;;;;;3.90;3.50;;;16.10;99.90;;;;;;5029971;28;20216;-72
2023/08/09 03:28:22;;;;;;;4.17;3.20;;;16.10;99.90;;;;;;5036713;28;20189;-72
2023/08/09 03:30:47;;;;;;;2.70;2.50;;;16.10;99.90;;;;;;5025908;28;20553;-72
2023/08/09 03:33:13;;;;;;;3.40;3.10;;;16.10;99.90;;;;;;5029464;28;20553;-72
2023/08/09 03:35:39;;;;;;;2.67;2.37;;;16.10;99.90;;;;;;5036990;28;20555;-72
2023/08/09 03:38:05;;;;;;;4.00;3.33;;;16.10;99.90;;;;;;5038020;28;20201;-72
2023/08/09 03:40:30;;;;;;;2.67;2.47;;;16.10;99.90;;;;;;5041121;28;20184;-72
2023/08/09 03:42:56;;;;;;;2.80;2.60;;;16.10;99.90;;;;;;5035249;28;20659;-72
2023/08/09 03:45:22;;;;;;;3.63;3.33;;;16.10;99.90;;;;;;5029948;28;20182;-72
2023/08/09 03:47:48;;;;;;;3.03;2.70;;;16.10;99.90;;;;;;5030582;28;20211;-72
2023/08/09 03:50:14;;;;;;;3.77;3.03;;;16.10;99.90;;;;;;5029043;28;20433;-72
2023/08/09 03:52:40;;;;;;;3.30;3.10;;;16.10;99.90;;;;;;5027334;28;20523;-72
2023/08/09 03:55:06;;;;;;;4.03;3.03;;;16.10;99.90;;;;;;5029286;28;20868;-72
2023/08/09 03:57:32;;;;;;;3.97;3.20;;;16.10;99.90;;;;;;5034052;28;20232;-72
2023/08/09 03:59:57;;;;;;;3.13;2.43;;;16.10;99.90;;;;;;5031943;28;20437;-72
2023/08/09 04:02:23;;;;;;;2.73;2.53;;;16.10;99.90;;;;;;5031917;28;20219;-72
2023/08/09 04:04:48;;;;;;;3.00;2.50;;;16.10;99.90;;;;;;5033156;28;20177;-72
2023/08/09 04:07:14;;;;;;;3.13;2.67;;;16.10;99.90;;;;;;5034448;28;20236;-72
2023/08/09 04:09:40;;;;;;;3.83;2.80;;;16.10;99.90;;;;;;5040459;28;20257;-72
2023/08/09 04:12:06;;;;;;;3.10;2.90;;;16.10;99.90;;;;;;5032627;28;20448;-72
2023/08/09 04:14:31;;;;;;;3.80;3.00;;;16.10;99.90;;;;;;5032225;28;20232;-72
2023/08/09 04:16:57;;;;;;;2.60;2.40;;;16.10;99.90;;;;;;5031706;28;20456;-71
2023/08/09 04:19:24;;;;;;;3.60;3.30;;;16.10;99.90;;;;;;5032730;28;20640;-72
2023/08/09 04:21:50;;;;;;;2.77;2.57;;;16.10;99.90;;;;;;5031578;28;20722;-72
2023/08/09 04:24:16;;;;;;;5.57;3.00;;;16.10;99.90;;;;;;5030200;28;20531;-72
2023/08/09 04:26:42;;;;;;;7.40;3.50;;;16.10;99.90;;;;;;5033133;28;20551;-72
2023/08/09 04:29:08;;;;;;;4.50;3.83;;;16.20;99.90;;;;;;5032778;28;20452;-72
2023/08/09 04:31:34;;;;;;;2.90;2.60;;;16.20;99.90;;;;;;5034237;28;22316;-72
2023/08/09 04:33:59;;;;;;;2.47;2.27;;;16.20;99.90;;;;;;5032193;28;20213;-72
2023/08/09 04:36:26;;;;;;;2.60;2.40;;;16.20;99.90;;;;;;5032179;28;20230;-72
2023/08/09 04:38:52;;;;;;;4.20;3.03;;;16.20;99.90;;;;;;5041595;28;20202;-72
2023/08/09 04:41:17;;;;;;;2.83;2.63;;;16.20;99.90;;;;;;5041198;28;20776;-72
2023/08/09 04:43:44;;;;;;;3.20;3.00;;;16.20;99.90;;;;;;5029085;28;20185;-72
2023/08/09 04:46:13;;;;;;;3.87;2.90;;;16.30;99.90;;;;;;5028696;28;20209;-72
2023/08/09 04:48:40;;;;;;;2.63;2.43;;;16.20;99.90;;;;;;5038225;28;20498;-72
2023/08/09 04:51:06;;;;;;;3.10;2.90;;;16.20;99.90;;;;;;5044779;28;20813;-72
2023/08/09 04:53:32;;;;;;;4.83;2.87;;;16.20;99.90;;;;;;5033523;28;20448;-72
2023/08/09 04:55:58;;;;;;;4.10;2.80;;;16.30;99.90;;;;;;5029863;28;20469;-72
2023/08/09 04:58:24;;;;;;;4.70;2.60;;;16.30;99.90;;;;;;5041327;28;21008;-72
2023/08/09 05:00:50;;;;;;;3.50;2.93;;;16.20;99.90;;;;;;5039351;28;20183;-72
2023/08/09 05:03:15;;;;;;;2.83;2.63;;;16.30;99.90;;;;;;5032356;28;20440;-72
2023/08/09 05:05:41;;;;;;;3.17;2.87;;;16.30;99.90;;;;;;5040870;28;20201;-72
2023/08/09 05:08:06;;;;;;;3.07;2.80;;;16.30;99.90;;;;;;5040740;28;20190;-71
2023/08/09 05:10:33;;;;;;;3.03;2.57;;;16.30;99.90;;;;;;5041503;28;20186;-72
2023/08/09 05:12:59;;;;;;;3.00;2.80;;;16.40;99.90;;;;;;5031850;28;20224;-72
2023/08/09 05:15:24;;;;;;;5.03;2.43;;;16.40;99.90;;;;;;5033753;28;20474;-72
2023/08/09 05:17:50;;;;;;;3.93;2.53;;;16.40;99.90;;;;;;5032628;28;20272;-72
2023/08/09 05:20:16;;;;;;;5.07;3.00;;;16.40;99.90;;;;;;5040073;28;20236;-72
2023/08/09 05:22:42;;;;;;;3.57;3.17;;;16.20;99.90;;;;;;5031652;28;20196;-72
2023/08/09 05:25:07;;;;;;;4.80;3.07;;;16.00;99.90;;;;;;5039379;28;20192;-72
2023/08/09 05:27:33;;;;;;;3.40;3.10;;;15.90;99.90;;;;;;5065512;23;20221;-71
2023/08/09 05:29:59;;;;;;;3.50;3.20;;;15.80;99.90;;;;;;5051505;28;20442;-70
2023/08/09 05:32:24;;;;;;;3.50;3.20;;;15.80;99.90;;;;;;5052975;28;20185;-72
2023/08/09 05:34:50;;;;;;;3.80;3.50;;;15.90;99.90;;;;;;5051872;28;20234;-71
2023/08/09 05:37:15;;;;;;;3.40;3.10;;;16.00;99.90;;;;;;5040656;28;20198;-71
2023/08/09 05:39:41;;;;;;;5.23;2.97;;;16.10;99.90;;;;;;5026695;28;20182;-71
2023/08/09 05:42:06;;;;;;;3.50;3.17;;;16.20;99.90;;;;;;5028262;28;20183;-71
2023/08/09 05:44:34;;;;;;;3.57;2.70;;;16.30;99.90;;;;;;5028822;28;20186;-71
2023/08/09 05:47:00;;;;;;;5.23;2.90;;;16.40;99.90;;;;;;5036441;28;20202;-72
2023/08/09 05:49:25;;;;;;;2.83;2.47;;;16.50;99.90;;;;;;5031265;28;21347;-72
2023/08/09 05:51:52;;;;;;;2.53;2.43;;;16.60;99.90;;;;;;5029649;28;20662;-71
2023/08/09 05:54:17;;;;;;;3.90;3.23;;;16.70;99.90;;;;;;5031757;28;20682;-71
2023/08/09 05:56:43;;;;;;;3.73;3.13;;;16.70;99.90;;;;;;5040004;28;20492;-73
2023/08/09 05:59:10;;;;;;;3.80;3.10;;;16.80;99.90;;;;;;5030825;28;20589;-71
2023/08/09 06:01:35;;;;;;;3.70;2.70;;;16.80;99.90;;;;;;5028689;28;20175;-72
2023/08/09 06:04:01;;;;;;;2.80;2.40;;;16.90;99.90;;;;;;5031253;28;20918;-72
2023/08/09 06:06:27;;;;;;;2.83;2.63;;;16.90;99.90;;;;;;5032842;28;20271;-72
2023/08/09 06:08:52;;;;;;;3.10;2.60;;;16.90;99.90;;;;;;5044085;28;20424;-72
2023/08/09 06:11:19;;;;;;;2.80;2.60;;;16.90;99.90;;;;;;5025226;28;20561;-72
2023/08/09 06:13:45;;;;;;;4.90;2.43;;;17.00;99.90;;;;;;5032898;28;20171;-71
2023/08/09 06:16:10;;;;;;;3.07;2.77;;;17.00;99.90;;;;;;5032722;28;20524;-72
2023/08/09 06:18:36;;;;;;;5.90;4.50;;;17.10;99.90;;;;;;5032358;28;21040;-71
2023/08/09 06:21:01;;;;;;;4.40;2.77;;;17.10;99.90;;;;;;5023939;28;20261;-71
2023/08/09 06:23:27;;;;;;;4.10;3.80;;;17.20;99.90;;;;;;5032728;28;20662;-71
2023/08/09 06:25:53;;;;;;;2.80;2.60;;;17.30;99.90;;;;;;5032838;28;20583;-71
2023/08/09 06:28:19;;;;;;;2.60;2.40;;;17.40;99.90;;;;;;5032071;28;20205;-71
2023/08/09 06:30:45;;;;;;;3.20;2.97;;;17.50;99.90;;;;;;5032302;28;20953;-71
2023/08/09 06:33:11;;;;;;;3.57;3.10;;;17.50;99.90;;;;;;5032459;28;20544;-72
2023/08/09 06:35:37;;;;;;;3.20;2.87;;;17.50;99.90;;;;;;5032412;28;20197;-71
2023/08/09 06:38:02;;;;;;;3.10;2.60;;;17.50;99.90;;;;;;5031799;28;21055;-71
2023/08/09 06:40:28;;;;;;;2.87;2.30;;;17.60;99.90;;;;;;5032035;28;20184;-71
2023/08/09 06:42:53;;;;;;;3.87;2.10;;;17.60;99.90;;;;;;5032296;28;20169;-68
2023/08/09 06:45:19;;;;;;;2.50;2.30;;;17.70;99.90;;;;;;5032237;28;20261;-69
2023/08/09 06:47:45;;;;;;;2.87;2.67;;;17.70;99.90;;;;;;5032453;28;20726;-69
2023/08/09 06:50:10;;;;;;;2.60;2.40;;;17.70;99.90;;;;;;5031312;28;20213;-69
2023/08/09 06:52:37;;;;;;;5.20;3.27;;;17.80;99.90;;;;;;5032319;28;20186;-71
2023/08/09 06:55:04;;;;;;;5.03;3.30;;;17.90;99.90;;;;;;5031273;28;20182;-70
2023/08/09 06:57:29;;;;;;;3.23;2.83;;;18.00;99.90;;;;;;5031721;28;21033;-71
2023/08/09 06:59:55;;;;;;;4.47;3.13;;;18.20;99.90;;;;;;5031473;28;20417;-71
2023/08/09 07:02:21;;;;;;;3.50;2.40;;;18.40;99.90;;;;;;5032028;28;20220;-71
2023/08/09 07:04:50;;;;;;;3.70;2.43;;;18.50;99.90;;;;;;5032075;28;20652;-71
2023/08/09 07:07:15;;;;;;;5.40;3.47;;;18.70;99.90;;;;;;5031466;28;20552;-71
2023/08/09 07:09:42;;;;;;;2.93;2.73;;;18.90;99.90;;;;;;5031741;28;20427;-71
2023/08/09 07:12:07;;;;;;;3.20;2.70;;;19.10;99.90;;;;;;5031764;28;20162;-70
2023/08/09 07:14:33;;;;;;;2.50;2.30;;;19.40;99.90;;;;;;5028863;28;20456;-71
2023/08/09 07:16:58;;;;;;;2.67;2.47;;;19.50;99.90;;;;;;5029329;28;20231;-71
2023/08/09 07:19:24;;;;;;;2.70;2.50;;;19.30;99.90;;;;;;5023280;28;20206;-71
2023/08/09 07:21:49;;;;;;;2.87;2.67;;;19.30;99.90;;;;;;5031946;28;20162;-71
2023/08/09 07:24:15;;;;;;;5.60;3.00;;;19.30;99.90;;;;;;5031972;28;20178;-71
2023/08/09 07:26:40;;;;;;;2.57;2.37;;;19.40;99.90;;;;;;5030921;28;20839;-70
2023/08/09 07:29:06;;;;;;;5.03;3.50;;;19.50;99.90;;;;;;5031182;28;20253;-70
2023/08/09 07:31:31;;;;;;;3.20;2.80;;;19.50;99.90;;;;;;5015443;28;20201;-70
2023/08/09 07:33:57;;;;;;;2.30;2.10;;;19.60;99.90;;;;;;5016333;28;20222;-70
2023/08/09 07:36:22;;;;;;;4.13;3.00;;;19.60;99.90;;;;;;5027614;28;20797;-70
2023/08/09 07:38:48;;;;;;;2.83;2.63;;;19.80;99.90;;;;;;5034297;28;20264;-70
2023/08/09 07:41:14;;;;;;;2.33;2.03;;;19.80;99.90;;;;;;5035669;28;20810;-70
2023/08/09 07:43:39;;;;;;;3.40;3.10;;;19.60;99.90;;;;;;5035694;28;20682;-70
2023/08/09 07:46:06;;;;;;;3.10;2.80;;;19.60;99.90;;;;;;5035341;28;20189;-70
2023/08/09 07:48:32;;;;;;;3.40;3.10;;;19.60;99.90;;;;;;5035085;28;20181;-70
2023/08/09 07:50:58;;;;;;;4.33;2.83;;;19.80;99.90;;;;;;5035581;28;20491;-70
2023/08/09 07:53:24;;;;;;;5.30;2.97;;;19.90;99.90;;;;;;5035561;28;20436;-70
2023/08/09 07:55:49;;;;;;;3.30;3.00;;;19.80;99.90;;;;;;5035012;28;20236;-70
2023/08/09 07:58:15;;;;;;;3.47;3.13;;;19.90;99.90;;;;;;5034515;28;20220;-70
2023/08/09 08:00:41;;;;;;;3.60;2.50;;;20.10;99.90;;;;;;5035344;28;20175;-71
2023/08/09 08:03:06;;;;;;;4.90;2.40;;;20.00;99.90;;;;;;5036586;28;20186;-71
2023/08/09 08:05:32;;;;;;;4.63;3.20;;;20.20;99.90;;;;;;5033476;28;20432;-71
2023/08/09 08:07:57;;;;;;;3.03;2.73;;;20.30;99.90;;;;;;5028463;28;20210;-71
2023/08/09 08:10:23;;;;;;;4.30;3.00;;;20.20;99.90;;;;;;5034722;28;20178;-70
2023/08/09 08:12:49;;;;;;;4.00;2.80;;;20.10;99.90;;;;;;5035064;28;20166;-71
2023/08/09 08:15:16;;;;;;;2.30;2.13;;;20.00;99.90;;;;;;5034846;28;20190;-70
2023/08/09 08:17:42;;;;;;;2.93;2.67;;;19.80;99.90;;;;;;5034709;28;20206;-71
2023/08/09 08:20:15;;;;;;;2.93;2.70;;;19.70;99.90;;;;;;5034368;28;20421;-71
2023/08/09 08:22:45;;;;;;;3.10;2.90;;;19.80;99.90;;;;;;5026110;28;20416;-70
2023/08/09 08:25:15;;;;;;;7.17;4.57;;;19.90;99.90;;;;;;5034332;28;20412;-69
2023/08/09 08:27:47;;;;;;;4.93;4.53;;;20.00;99.90;;;;;;5034409;28;20456;-68
2023/08/09 08:30:17;;;;;;;3.17;2.87;;;20.10;99.90;;;;;;5034222;28;20432;-68
2023/08/09 08:32:48;;;;;;;4.67;3.10;;;20.10;99.90;;;;;;5034771;28;20425;-68
2023/08/09 08:35:14;;;;;;;3.30;2.77;;;20.30;99.90;;;;;;5031049;28;20479;-68
2023/08/09 08:37:41;;;;;;;4.60;2.93;;;20.50;99.90;;;;;;5034370;28;20965;-68
2023/08/09 08:40:21;;;;;;;2.87;2.53;;;20.60;99.90;;;;;;5016147;28;20426;-68
2023/08/09 08:42:50;;;;;;;3.00;2.80;;;20.90;99.90;;;;;;5029997;28;20946;-68
2023/08/09 08:45:16;;;;;;;2.67;2.47;;;21.10;99.90;;;;;;5029663;28;20788;-68
2023/08/09 08:47:44;;;;;;;3.10;2.50;;;21.20;99.90;;;;;;5034325;28;20448;-68
2023/08/09 08:50:12;;;;;;;3.57;2.23;;;21.10;99.90;;;;;;5033756;28;20417;-68
2023/08/09 08:52:40;;;;;;;3.00;2.80;;;21.10;99.90;;;;;;5034248;28;20412;-68
2023/08/09 08:55:08;;;;;;;2.83;2.53;;;21.30;99.90;;;;;;5034299;28;20413;-68
2023/08/09 08:57:34;;;;;;;3.77;2.93;;;21.20;99.90;;;;;;5033371;28;20460;-69
2023/08/09 09:00:17;;;;;;;2.17;2.07;;;21.00;99.90;;;;;;5033603;28;20471;-68
2023/08/09 09:02:44;;;;;;;3.13;2.90;;;20.70;99.90;;;;;;5034292;28;20545;-69
2023/08/09 09:05:11;;;;;;;2.30;2.10;;;20.80;99.90;;;;;;5033973;28;20503;-68
2023/08/09 09:07:38;;;;;;;3.10;2.77;;;20.80;99.90;;;;;;5032180;28;21046;-68
2023/08/09 09:10:05;;;;;;;2.80;2.60;;;20.80;99.90;;;;;;5033363;28;20523;-69
2023/08/09 09:12:34;;;;;;;3.60;2.30;;;21.00;99.90;;;;;;5034136;28;20421;-69
2023/08/09 09:15:00;;;;;;;7.73;6.93;;;21.30;99.90;;;;;;5034055;28;20413;-69
2023/08/09 09:17:26;;;;;;;7.30;6.10;;;21.30;99.90;;;;;;5033096;28;20468;-69
2023/08/09 09:19:52;;;;;;;7.20;5.13;;;21.40;99.90;;;;;;5033267;28;20435;-69
2023/08/09 09:22:29;;;;;;;5.77;5.27;;;21.50;99.90;;;;;;5033838;28;20223;-68
2023/08/09 09:24:58;;;;;;;3.40;3.20;;;21.70;99.90;;;;;;5033958;28;20200;-68
2023/08/09 09:27:31;;;;;;;4.03;3.17;;;21.40;99.90;;;;;;5023549;28;20565;-68
2023/08/09 09:30:01;;;;;;;4.03;3.73;;;21.50;99.90;;;;;;5032530;28;20520;-68
2023/08/09 09:32:26;;;;;;;5.03;4.63;;;21.30;99.90;;;;;;5026701;28;20431;-68
2023/08/09 09:34:52;;;;;;;3.30;3.00;;;21.40;99.90;;;;;;5033656;28;20440;-68
2023/08/09 09:37:23;;;;;;;3.90;3.70;;;21.50;99.90;;;;;;5032671;28;20605;-69
2023/08/09 09:39:51;;;;;;;2.77;2.37;;;21.80;99.90;;;;;;5030300;28;20177;-69
2023/08/09 09:42:17;;;;;;;3.60;2.70;;;21.80;99.90;;;;;;5050421;28;20564;-68
2023/08/09 09:44:43;;;;;;;2.80;2.53;;;21.60;99.90;;;;;;5049819;28;20507;-69
2023/08/09 09:47:10;;;;;;;3.93;3.63;;;21.70;99.90;;;;;;5036537;28;20566;-69
2023/08/09 09:49:36;;;;;;;3.07;2.77;;;21.50;99.90;;;;;;5032034;28;20421;-69
2023/08/09 09:52:03;;;;;;;5.40;3.00;;;21.50;99.90;;;;;;5032650;28;20436;-69
2023/08/09 09:54:29;;;;;;;4.33;2.80;;;21.30;99.90;;;;;;5031315;28;20429;-69
2023/08/09 09:56:55;;;;;;;3.50;2.40;;;21.40;99.90;;;;;;5027903;28;20464;-68
2023/08/09 09:59:20;;;;;;;3.57;3.10;;;21.40;99.90;;;;;;5021323;28;20539;-69
2023/08/09 10:01:47;;;;;;;3.60;2.73;;;21.30;99.90;;;;;;5032903;28;20727;-67
2023/08/09 10:04:16;;;;;;;4.10;2.50;;;21.50;99.90;;;;;;5037906;28;20560;-67
2023/08/09 10:06:45;;;;;;;4.07;2.50;;;21.60;99.90;;;;;;5031619;28;20445;-67
2023/08/09 10:09:13;;;;;;;3.83;2.77;;;21.70;99.90;;;;;;5030435;28;20421;-68
2023/08/09 10:11:40;;;;;;;2.30;2.13;;;21.60;99.90;;;;;;5033146;28;20819;-68
2023/08/09 10:14:07;;;;;;;2.87;2.40;;;21.70;99.90;;;;;;5032124;28;20507;-68
2023/08/09 10:16:35;;;;;;;2.77;2.57;;;21.80;99.90;;;;;;5033057;28;20965;-68
2023/08/09 10:19:04;;;;;;;5.40;3.70;;;21.50;99.90;;;;;;5032105;28;20452;-68
2023/08/09 10:21:30;;;;;;;2.93;2.70;;;21.60;99.90;;;;;;5032896;28;20448;-68
2023/08/09 10:24:06;;;;;;;3.50;3.20;;;21.50;99.90;;;;;;5030736;28;20463;-68
2023/08/09 10:26:32;;;;;;;4.00;2.53;;;21.20;99.90;;;;;;5032419;28;20703;-68
2023/08/09 10:29:08;;;;;;;2.77;2.53;;;21.20;99.90;;;;;;5032093;28;20503;-69
2023/08/09 10:31:51;;;;;;;6.83;2.83;;;21.30;99.90;;;;;;5032355;28;20849;-68
2023/08/09 10:34:18;;;;;;;2.60;2.13;;;21.40;99.90;;;;;;5032045;28;20876;-68
2023/08/09 10:36:53;;;;;;;3.83;2.83;;;21.50;99.90;;;;;;5032461;28;20528;-69
2023/08/09 10:39:19;;;;;;;3.83;2.47;;;21.40;99.90;;;;;;5031734;28;20513;-68
2023/08/09 10:42:03;;;;;;;2.20;1.80;;;21.40;99.90;;;;;;5032521;28;20787;-68
2023/08/09 10:44:48;;;;;;;3.40;2.27;;;21.70;99.90;;;;;;5023328;28;20476;-69
2023/08/09 10:47:20;;;;;;;3.80;2.60;;;22.10;99.90;;;;;;5031458;28;20464;-68
2023/08/09 10:49:49;;;;;;;3.30;3.10;;;22.30;99.90;;;;;;5031604;28;20413;-68
2023/08/09 10:52:28;;;;;;;2.70;2.50;;;22.40;99.90;;;;;;5032268;28;20427;-69
2023/08/09 10:55:24;;;;;;;2.50;2.30;;;22.80;99.90;;;;;;5029047;28;20515;-68
2023/08/09 10:57:51;;;;;;;2.60;2.40;;;22.70;99.90;;;;;;5012576;28;20544;-69
2023/08/09 11:00:18;;;;;;;2.73;2.17;;;23.30;99.90;;;;;;5011835;28;20848;-69
2023/08/09 11:02:55;;;;;;;2.47;2.30;;;23.40;99.90;;;;;;5014123;28;20451;-69
2023/08/09 11:05:22;;;;;;;3.97;2.20;;;23.40;99.90;;;;;;5028741;28;20429;-69
2023/08/09 11:07:53;;;;;;;3.00;2.73;;;23.50;99.90;;;;;;5029234;28;20460;-69
2023/08/09 11:10:33;;;;;;;2.83;2.10;;;24.00;99.90;;;;;;5031447;28;20420;-69
2023/08/09 11:13:11;;;;;;;2.10;1.97;;;24.50;99.90;;;;;;5031425;28;20472;-68
2023/08/09 11:15:37;;;;;;;2.50;1.97;;;25.10;99.90;;;;;;5031953;28;20951;-68
2023/08/09 11:18:04;;;;;;;4.80;2.60;;;25.70;99.90;;;;;;5031836;28;21004;-69
2023/08/09 11:20:30;;;;;;;2.10;2.00;;;26.30;99.90;;;;;;5031424;28;20504;-69
2023/08/09 11:22:57;;;;;;;3.37;2.33;;;26.20;99.90;;;;;;5031188;28;21006;-68
2023/08/09 11:25:24;;;;;;;3.37;2.17;;;26.40;99.90;;;;;;5031875;28;20175;-68
2023/08/09 11:27:52;;;;;;;4.47;1.93;;;26.90;98.10;;;;;;5043740;23;20540;-69
2023/08/09 11:30:17;;;;;;;3.90;2.83;;;27.60;95.40;;;;;;5011318;28;20907;-69
2023/08/09 11:32:43;;;;;;;3.93;2.53;;;27.80;94.20;;;;;;5011266;28;20420;-69
2023/08/09 11:35:09;;;;;;;2.87;2.00;;;28.00;93.80;;;;;;5003909;28;20183;-68
2023/08/09 11:37:35;;;;;;;3.70;2.50;;;28.10;93.00;;;;;;5003092;28;20294;-69
2023/08/09 11:40:00;;;;;;;2.20;1.97;;;27.80;92.80;;;;;;5011576;28;20525;-69
2023/08/09 11:42:26;;;;;;;2.93;1.93;;;27.60;92.60;;;;;;5012111;28;20174;-69
2023/08/09 11:44:51;;;;;;;2.93;1.83;;;27.80;92.60;;;;;;5010784;28;20546;-69
2023/08/09 11:47:17;;;;;;;2.30;2.10;;;27.70;92.60;;;;;;5010674;28;20217;-69
2023/08/09 11:49:43;;;;;;;2.30;2.00;;;28.50;90.60;;;;;;5011059;28;20557;-69
2023/08/09 11:52:16;;;;;;;3.17;1.70;;;29.10;86.70;;;;;;5011976;28;20293;-69
2023/08/09 11:54:42;;;;;;;1.93;1.77;;;28.80;88.80;;;;;;5012031;28;20171;-69
2023/08/09 11:57:08;;;;;;;2.73;2.20;;;28.30;90.10;;;;;;5011272;28;21517;-70
2023/08/09 11:59:37;;;;;;;2.27;1.80;;;27.90;89.70;;;;;;5010822;28;20545;-68
2023/08/09 12:02:03;;;;;;;1.97;1.87;;;28.90;88.70;;;;;;5010607;28;20313;-68
2023/08/09 12:04:29;;;;;;;2.80;2.60;;;30.40;83.30;;;;;;5011934;28;20505;-68
2023/08/09 12:07:05;;;;;;;2.60;2.40;;;30.30;76.90;;;;;;5011049;28;20187;-68
2023/08/09 12:09:42;;;;;;;4.37;2.37;;;29.30;79.00;;;;;;5011120;28;20508;-68
2023/08/09 12:12:09;;;;;;;2.90;2.10;;;28.40;81.10;;;;;;5011848;28;20455;-68
2023/08/09 12:14:40;;;;;;;2.33;2.10;;;26.80;85.60;;;;;;5011731;28;20500;-68
2023/08/09 12:17:07;;;;;;;2.43;2.13;;;26.10;90.10;;;;;;5012965;28;20457;-68
2023/08/09 12:19:33;;;;;;;2.63;2.20;;;25.60;92.50;;;;;;5014408;28;20468;-68
2023/08/09 12:22:00;;;;;;;5.13;2.20;;;25.30;94.70;;;;;;5014538;28;20438;-68
2023/08/09 12:24:26;;;;;;;5.10;2.17;;;25.00;96.10;;;;;;5015215;28;20792;-68
2023/08/09 12:26:52;;;;;;;3.03;2.17;;;25.10;96.00;;;;;;5014258;28;20449;-67
2023/08/09 12:29:17;;;;;;;2.47;1.67;;;25.40;95.30;;;;;;5013092;28;20429;-68
2023/08/09 12:31:43;;;;;;;3.93;1.97;;;25.20;96.30;;;;;;5015245;28;20206;-69
2023/08/09 12:34:11;;;;;;;2.23;2.03;;;25.00;95.40;;;;;;5015322;28;20598;-69
2023/08/09 12:36:37;;;;;;;2.40;1.97;;;25.10;96.40;;;;;;5015006;28;20179;-68
2023/08/09 12:39:03;;;;;;;2.73;2.27;;;25.50;95.70;;;;;;5013589;28;20563;-69
2023/08/09 12:41:29;;;;;;;2.90;2.53;;;25.50;93.50;;;;;;5014977;28;20430;-68
2023/08/09 12:43:55;;;;;;;2.70;2.50;;;25.20;95.20;;;;;;5014867;28;20826;-67
2023/08/09 12:46:21;;;;;;;3.77;2.40;;;25.30;94.90;;;;;;5014861;28;20167;-70
2023/08/09 12:48:46;;;;;;;2.40;2.20;;;25.10;95.40;;;;;;5012732;28;20278;-71